sensor_id;sensor_type;location;lat;lon;timestamp;P1;durP1;ratioP1;P2;durP2;ratioP2
18228;SDS011;9239;50.932;3.142;2022-10-16T00:00:35;2.17;;;1.20;;
18228;SDS011;9239;50.932;3.142;2022-10-16T00:03:03;4.60;;;1.30;;
18228;SDS011;9239;50.932;3.142;2022-10-16T00:05:30;1.17;;;1.08;;
18228;SDS011;9239;50.932;3.142;2022-10-16T00:07:57;1.60;;;1.35;;
18228;SDS011;9239;50.932;3.142;2022-10-16T00:10:24;1.30;;;1.20;;
18228;SDS011;9239;50.932;3.142;2022-10-16T00:12:53;3.10;;;1.20;;
18228;SDS011;9239;50.932;3.142;2022-10-16T00:15:20;1.42;;;1.30;;
18228;SDS011;9239;50.932;3.142;2022-10-16T00:17:46;2.40;;;1.38;;
18228;SDS011;9239;50.932;3.142;2022-10-16T00:20:13;2.47;;;1.27;;
18228;SDS011;9239;50.932;3.142;2022-10-16T00:22:40;1.63;;;1.45;;
18228;SDS011;9239;50.932;3.142;2022-10-16T00:25:07;1.40;;;1.30;;
18228;SDS011;9239;50.932;3.142;2022-10-16T00:27:34;1.40;;;1.30;;
18228;SDS011;9239;50.932;3.142;2022-10-16T00:30:03;1.20;;;1.10;;
18228;SDS011;9239;50.932;3.142;2022-10-16T00:32:33;2.85;;;1.52;;
18228;SDS011;9239;50.932;3.142;2022-10-16T00:35:00;1.40;;;1.27;;
18228;SDS011;9239;50.932;3.142;2022-10-16T00:37:29;1.95;;;1.42;;
18228;SDS011;9239;50.932;3.142;2022-10-16T00:39:55;1.60;;;1.50;;
18228;SDS011;9239;50.932;3.142;2022-10-16T00:42:22;2.50;;;1.45;;
18228;SDS011;9239;50.932;3.142;2022-10-16T00:44:50;1.50;;;1.30;;
18228;SDS011;9239;50.932;3.142;2022-10-16T00:47:22;2.20;;;1.30;;
18228;SDS011;9239;50.932;3.142;2022-10-16T00:49:53;2.33;;;1.30;;
18228;SDS011;9239;50.932;3.142;2022-10-16T00:52:24;2.45;;;1.40;;
18228;SDS011;9239;50.932;3.142;2022-10-16T00:54:51;2.30;;;1.30;;
18228;SDS011;9239;50.932;3.142;2022-10-16T00:57:19;1.58;;;1.48;;
18228;SDS011;9239;50.932;3.142;2022-10-16T00:59:47;2.25;;;1.20;;
18228;SDS011;9239;50.932;3.142;2022-10-16T01:02:14;3.42;;;1.40;;
18228;SDS011;9239;50.932;3.142;2022-10-16T01:04:43;1.83;;;1.40;;
18228;SDS011;9239;50.932;3.142;2022-10-16T01:07:14;2.75;;;1.23;;
18228;SDS011;9239;50.932;3.142;2022-10-16T01:09:51;1.33;;;1.13;;
18228;SDS011;9239;50.932;3.142;2022-10-16T01:12:30;3.53;;;1.50;;
18228;SDS011;9239;50.932;3.142;2022-10-16T01:15:06;1.17;;;0.95;;
18228;SDS011;9239;50.932;3.142;2022-10-16T01:17:39;2.63;;;1.40;;
18228;SDS011;9239;50.932;3.142;2022-10-16T01:20:14;1.90;;;1.30;;
18228;SDS011;9239;50.932;3.142;2022-10-16T01:22:54;1.75;;;1.13;;
18228;SDS011;9239;50.932;3.142;2022-10-16T01:25:32;1.30;;;1.20;;
18228;SDS011;9239;50.932;3.142;2022-10-16T01:28:13;1.77;;;1.40;;
18228;SDS011;9239;50.932;3.142;2022-10-16T01:30:42;2.13;;;1.27;;
18228;SDS011;9239;50.932;3.142;2022-10-16T01:33:13;2.93;;;1.30;;
18228;SDS011;9239;50.932;3.142;2022-10-16T01:35:44;1.27;;;1.17;;
18228;SDS011;9239;50.932;3.142;2022-10-16T01:38:14;2.03;;;1.20;;
18228;SDS011;9239;50.932;3.142;2022-10-16T01:40:45;1.90;;;1.27;;
18228;SDS011;9239;50.932;3.142;2022-10-16T01:43:17;3.35;;;1.35;;
18228;SDS011;9239;50.932;3.142;2022-10-16T01:45:47;3.10;;;1.43;;
18228;SDS011;9239;50.932;3.142;2022-10-16T01:48:16;1.47;;;1.37;;
18228;SDS011;9239;50.932;3.142;2022-10-16T01:50:47;2.60;;;1.57;;
18228;SDS011;9239;50.932;3.142;2022-10-16T01:53:18;1.98;;;1.45;;
18228;SDS011;9239;50.932;3.142;2022-10-16T01:55:46;2.63;;;1.60;;
18228;SDS011;9239;50.932;3.142;2022-10-16T01:58:16;2.77;;;1.37;;
18228;SDS011;9239;50.932;3.142;2022-10-16T02:00:44;3.58;;;1.40;;
18228;SDS011;9239;50.932;3.142;2022-10-16T02:03:13;1.70;;;1.60;;
18228;SDS011;9239;50.932;3.142;2022-10-16T02:05:45;2.67;;;1.60;;
18228;SDS011;9239;50.932;3.142;2022-10-16T02:08:13;4.37;;;1.47;;
18228;SDS011;9239;50.932;3.142;2022-10-16T02:10:40;2.50;;;1.88;;
18228;SDS011;9239;50.932;3.142;2022-10-16T02:13:08;2.77;;;1.47;;
18228;SDS011;9239;50.932;3.142;2022-10-16T02:15:39;3.00;;;1.60;;
18228;SDS011;9239;50.932;3.142;2022-10-16T02:18:06;1.40;;;1.30;;
18228;SDS011;9239;50.932;3.142;2022-10-16T02:20:37;3.75;;;1.60;;
18228;SDS011;9239;50.932;3.142;2022-10-16T02:23:11;4.50;;;1.55;;
18228;SDS011;9239;50.932;3.142;2022-10-16T02:25:42;1.47;;;1.20;;
18228;SDS011;9239;50.932;3.142;2022-10-16T02:28:13;2.63;;;1.20;;
18228;SDS011;9239;50.932;3.142;2022-10-16T02:30:45;1.92;;;1.48;;
18228;SDS011;9239;50.932;3.142;2022-10-16T02:33:15;1.40;;;1.27;;
18228;SDS011;9239;50.932;3.142;2022-10-16T02:35:44;2.00;;;1.67;;
18228;SDS011;9239;50.932;3.142;2022-10-16T02:38:12;2.85;;;1.73;;
18228;SDS011;9239;50.932;3.142;2022-10-16T02:40:41;2.03;;;1.58;;
18228;SDS011;9239;50.932;3.142;2022-10-16T02:43:08;1.73;;;1.60;;
18228;SDS011;9239;50.932;3.142;2022-10-16T02:45:36;1.70;;;1.50;;
18228;SDS011;9239;50.932;3.142;2022-10-16T02:48:05;2.35;;;1.25;;
18228;SDS011;9239;50.932;3.142;2022-10-16T02:50:32;1.70;;;1.60;;
18228;SDS011;9239;50.932;3.142;2022-10-16T02:52:59;4.65;;;2.45;;
18228;SDS011;9239;50.932;3.142;2022-10-16T02:55:26;2.50;;;1.65;;
18228;SDS011;9239;50.932;3.142;2022-10-16T02:57:54;2.45;;;1.50;;
18228;SDS011;9239;50.932;3.142;2022-10-16T03:00:21;3.17;;;1.67;;
18228;SDS011;9239;50.932;3.142;2022-10-16T03:02:48;3.10;;;1.67;;
18228;SDS011;9239;50.932;3.142;2022-10-16T03:05:16;2.30;;;1.55;;
18228;SDS011;9239;50.932;3.142;2022-10-16T03:07:43;1.98;;;1.70;;
18228;SDS011;9239;50.932;3.142;2022-10-16T03:10:10;3.90;;;1.40;;
18228;SDS011;9239;50.932;3.142;2022-10-16T03:12:37;4.88;;;1.48;;
18228;SDS011;9239;50.932;3.142;2022-10-16T03:15:04;2.67;;;1.70;;
18228;SDS011;9239;50.932;3.142;2022-10-16T03:17:32;3.33;;;1.70;;
18228;SDS011;9239;50.932;3.142;2022-10-16T03:19:59;5.40;;;1.90;;
18228;SDS011;9239;50.932;3.142;2022-10-16T03:22:28;2.33;;;1.80;;
18228;SDS011;9239;50.932;3.142;2022-10-16T03:24:55;2.75;;;1.67;;
18228;SDS011;9239;50.932;3.142;2022-10-16T03:27:22;3.40;;;1.60;;
18228;SDS011;9239;50.932;3.142;2022-10-16T03:29:49;2.83;;;1.53;;
18228;SDS011;9239;50.932;3.142;2022-10-16T03:32:15;1.87;;;1.67;;
18228;SDS011;9239;50.932;3.142;2022-10-16T03:34:43;2.20;;;1.40;;
18228;SDS011;9239;50.932;3.142;2022-10-16T03:37:10;3.60;;;1.90;;
18228;SDS011;9239;50.932;3.142;2022-10-16T03:39:38;2.67;;;1.80;;
18228;SDS011;9239;50.932;3.142;2022-10-16T03:42:05;1.90;;;1.30;;
18228;SDS011;9239;50.932;3.142;2022-10-16T03:44:32;3.40;;;1.73;;
18228;SDS011;9239;50.932;3.142;2022-10-16T03:46:59;3.13;;;1.55;;
18228;SDS011;9239;50.932;3.142;2022-10-16T03:49:26;2.70;;;1.55;;
18228;SDS011;9239;50.932;3.142;2022-10-16T03:51:53;2.87;;;2.20;;
18228;SDS011;9239;50.932;3.142;2022-10-16T03:54:20;3.90;;;3.50;;
18228;SDS011;9239;50.932;3.142;2022-10-16T03:56:48;5.90;;;4.00;;
18228;SDS011;9239;50.932;3.142;2022-10-16T03:59:15;5.73;;;3.83;;
18228;SDS011;9239;50.932;3.142;2022-10-16T04:01:42;4.63;;;3.90;;
18228;SDS011;9239;50.932;3.142;2022-10-16T04:04:09;6.67;;;4.10;;
18228;SDS011;9239;50.932;3.142;2022-10-16T04:06:36;6.17;;;4.27;;
18228;SDS011;9239;50.932;3.142;2022-10-16T04:09:03;5.03;;;3.90;;
18228;SDS011;9239;50.932;3.142;2022-10-16T04:11:30;4.03;;;3.73;;
18228;SDS011;9239;50.932;3.142;2022-10-16T04:13:58;7.70;;;4.37;;
18228;SDS011;9239;50.932;3.142;2022-10-16T04:16:25;4.90;;;4.23;;
18228;SDS011;9239;50.932;3.142;2022-10-16T04:18:52;4.00;;;3.60;;
18228;SDS011;9239;50.932;3.142;2022-10-16T04:21:19;5.73;;;3.60;;
18228;SDS011;9239;50.932;3.142;2022-10-16T04:23:46;5.07;;;3.60;;
18228;SDS011;9239;50.932;3.142;2022-10-16T04:26:13;5.83;;;3.30;;
18228;SDS011;9239;50.932;3.142;2022-10-16T04:28:40;4.03;;;3.35;;
18228;SDS011;9239;50.932;3.142;2022-10-16T04:31:08;6.30;;;3.60;;
18228;SDS011;9239;50.932;3.142;2022-10-16T04:33:35;3.93;;;3.00;;
18228;SDS011;9239;50.932;3.142;2022-10-16T04:36:02;3.40;;;3.10;;
18228;SDS011;9239;50.932;3.142;2022-10-16T04:38:30;4.67;;;3.10;;
18228;SDS011;9239;50.932;3.142;2022-10-16T04:40:57;3.80;;;3.37;;
18228;SDS011;9239;50.932;3.142;2022-10-16T04:43:24;7.73;;;3.13;;
18228;SDS011;9239;50.932;3.142;2022-10-16T04:45:51;5.67;;;3.53;;
18228;SDS011;9239;50.932;3.142;2022-10-16T04:48:21;4.80;;;3.10;;
18228;SDS011;9239;50.932;3.142;2022-10-16T04:50:48;4.07;;;2.93;;
18228;SDS011;9239;50.932;3.142;2022-10-16T04:53:15;4.70;;;3.07;;
18228;SDS011;9239;50.932;3.142;2022-10-16T04:55:43;4.47;;;2.80;;
18228;SDS011;9239;50.932;3.142;2022-10-16T04:58:10;3.23;;;2.50;;
18228;SDS011;9239;50.932;3.142;2022-10-16T05:00:37;5.07;;;2.20;;
18228;SDS011;9239;50.932;3.142;2022-10-16T05:03:04;3.28;;;1.90;;
18228;SDS011;9239;50.932;3.142;2022-10-16T05:05:35;4.22;;;2.58;;
18228;SDS011;9239;50.932;3.142;2022-10-16T05:08:02;4.18;;;2.60;;
18228;SDS011;9239;50.932;3.142;2022-10-16T05:10:30;5.40;;;2.00;;
18228;SDS011;9239;50.932;3.142;2022-10-16T05:12:57;3.95;;;2.53;;
18228;SDS011;9239;50.932;3.142;2022-10-16T05:15:24;4.07;;;2.50;;
18228;SDS011;9239;50.932;3.142;2022-10-16T05:17:52;4.80;;;3.03;;
18228;SDS011;9239;50.932;3.142;2022-10-16T05:20:19;4.87;;;2.57;;
18228;SDS011;9239;50.932;3.142;2022-10-16T05:22:48;4.25;;;2.60;;
18228;SDS011;9239;50.932;3.142;2022-10-16T05:25:15;4.53;;;2.53;;
18228;SDS011;9239;50.932;3.142;2022-10-16T05:27:42;4.03;;;2.67;;
18228;SDS011;9239;50.932;3.142;2022-10-16T05:30:09;4.17;;;2.53;;
18228;SDS011;9239;50.932;3.142;2022-10-16T05:32:36;6.07;;;2.80;;
18228;SDS011;9239;50.932;3.142;2022-10-16T05:35:03;5.23;;;2.50;;
18228;SDS011;9239;50.932;3.142;2022-10-16T05:37:31;2.63;;;2.43;;
18228;SDS011;9239;50.932;3.142;2022-10-16T05:39:59;4.90;;;2.25;;
18228;SDS011;9239;50.932;3.142;2022-10-16T05:42:26;6.33;;;2.40;;
18228;SDS011;9239;50.932;3.142;2022-10-16T05:44:53;3.23;;;2.43;;
18228;SDS011;9239;50.932;3.142;2022-10-16T05:47:20;4.03;;;2.43;;
18228;SDS011;9239;50.932;3.142;2022-10-16T05:49:47;3.27;;;2.03;;
18228;SDS011;9239;50.932;3.142;2022-10-16T05:52:13;2.93;;;2.20;;
18228;SDS011;9239;50.932;3.142;2022-10-16T05:54:40;3.73;;;2.33;;
18228;SDS011;9239;50.932;3.142;2022-10-16T05:57:08;3.30;;;2.47;;
18228;SDS011;9239;50.932;3.142;2022-10-16T05:59:35;2.87;;;2.10;;
18228;SDS011;9239;50.932;3.142;2022-10-16T06:02:03;5.67;;;2.17;;
18228;SDS011;9239;50.932;3.142;2022-10-16T06:04:30;4.60;;;2.10;;
18228;SDS011;9239;50.932;3.142;2022-10-16T06:06:57;5.23;;;1.80;;
18228;SDS011;9239;50.932;3.142;2022-10-16T06:09:26;3.63;;;1.90;;
18228;SDS011;9239;50.932;3.142;2022-10-16T06:11:53;4.50;;;2.03;;
18228;SDS011;9239;50.932;3.142;2022-10-16T06:14:21;2.63;;;1.77;;
18228;SDS011;9239;50.932;3.142;2022-10-16T06:16:48;3.13;;;1.93;;
18228;SDS011;9239;50.932;3.142;2022-10-16T06:19:15;2.70;;;2.00;;
18228;SDS011;9239;50.932;3.142;2022-10-16T06:21:42;2.80;;;1.67;;
18228;SDS011;9239;50.932;3.142;2022-10-16T06:24:09;6.60;;;2.00;;
18228;SDS011;9239;50.932;3.142;2022-10-16T06:26:36;4.10;;;1.80;;
18228;SDS011;9239;50.932;3.142;2022-10-16T06:29:04;4.70;;;1.53;;
18228;SDS011;9239;50.932;3.142;2022-10-16T06:31:32;3.33;;;1.10;;
18228;SDS011;9239;50.932;3.142;2022-10-16T06:33:59;3.23;;;1.50;;
18228;SDS011;9239;50.932;3.142;2022-10-16T06:36:27;3.27;;;1.20;;
18228;SDS011;9239;50.932;3.142;2022-10-16T06:38:54;1.53;;;1.20;;
18228;SDS011;9239;50.932;3.142;2022-10-16T06:41:21;2.80;;;1.40;;
18228;SDS011;9239;50.932;3.142;2022-10-16T06:43:48;4.47;;;1.67;;
18228;SDS011;9239;50.932;3.142;2022-10-16T06:46:16;3.30;;;1.40;;
18228;SDS011;9239;50.932;3.142;2022-10-16T06:48:45;2.10;;;1.57;;
18228;SDS011;9239;50.932;3.142;2022-10-16T06:51:13;3.83;;;1.53;;
18228;SDS011;9239;50.932;3.142;2022-10-16T06:53:42;7.00;;;1.90;;
18228;SDS011;9239;50.932;3.142;2022-10-16T06:56:10;3.80;;;1.77;;
18228;SDS011;9239;50.932;3.142;2022-10-16T06:58:39;5.00;;;1.70;;
18228;SDS011;9239;50.932;3.142;2022-10-16T07:01:06;2.40;;;1.40;;
18228;SDS011;9239;50.932;3.142;2022-10-16T07:03:35;4.00;;;1.80;;
18228;SDS011;9239;50.932;3.142;2022-10-16T07:06:05;3.90;;;2.03;;
18228;SDS011;9239;50.932;3.142;2022-10-16T07:08:33;3.47;;;2.63;;
18228;SDS011;9239;50.932;3.142;2022-10-16T07:11:01;4.73;;;3.93;;
18228;SDS011;9239;50.932;3.142;2022-10-16T07:13:28;5.97;;;4.13;;
18228;SDS011;9239;50.932;3.142;2022-10-16T07:15:55;8.47;;;4.63;;
18228;SDS011;9239;50.932;3.142;2022-10-16T07:18:22;8.00;;;5.27;;
18228;SDS011;9239;50.932;3.142;2022-10-16T07:20:51;6.77;;;5.30;;
18228;SDS011;9239;50.932;3.142;2022-10-16T07:23:20;6.97;;;4.80;;
18228;SDS011;9239;50.932;3.142;2022-10-16T07:25:52;9.23;;;4.77;;
18228;SDS011;9239;50.932;3.142;2022-10-16T07:28:20;5.07;;;4.60;;
18228;SDS011;9239;50.932;3.142;2022-10-16T07:30:47;4.80;;;4.20;;
18228;SDS011;9239;50.932;3.142;2022-10-16T07:33:14;7.03;;;3.70;;
18228;SDS011;9239;50.932;3.142;2022-10-16T07:35:47;5.87;;;3.13;;
18228;SDS011;9239;50.932;3.142;2022-10-16T07:38:14;7.77;;;3.67;;
18228;SDS011;9239;50.932;3.142;2022-10-16T07:40:43;5.10;;;3.10;;
18228;SDS011;9239;50.932;3.142;2022-10-16T07:43:10;6.90;;;3.07;;
18228;SDS011;9239;50.932;3.142;2022-10-16T07:45:37;4.63;;;2.92;;
18228;SDS011;9239;50.932;3.142;2022-10-16T07:48:12;6.80;;;3.07;;
18228;SDS011;9239;50.932;3.142;2022-10-16T07:50:39;4.97;;;2.40;;
18228;SDS011;9239;50.932;3.142;2022-10-16T07:53:06;2.92;;;2.40;;
18228;SDS011;9239;50.932;3.142;2022-10-16T07:55:33;2.83;;;2.58;;
18228;SDS011;9239;50.932;3.142;2022-10-16T07:58:01;6.33;;;2.53;;
18228;SDS011;9239;50.932;3.142;2022-10-16T08:00:28;5.80;;;2.05;;
18228;SDS011;9239;50.932;3.142;2022-10-16T08:02:56;5.18;;;2.28;;
18228;SDS011;9239;50.932;3.142;2022-10-16T08:05:25;4.07;;;2.22;;
18228;SDS011;9239;50.932;3.142;2022-10-16T08:07:52;4.53;;;2.03;;
18228;SDS011;9239;50.932;3.142;2022-10-16T08:10:20;2.42;;;1.70;;
18228;SDS011;9239;50.932;3.142;2022-10-16T08:12:48;3.47;;;1.75;;
18228;SDS011;9239;50.932;3.142;2022-10-16T08:15:16;2.65;;;1.67;;
18228;SDS011;9239;50.932;3.142;2022-10-16T08:17:43;2.28;;;1.30;;
18228;SDS011;9239;50.932;3.142;2022-10-16T08:20:10;4.43;;;1.35;;
18228;SDS011;9239;50.932;3.142;2022-10-16T08:22:37;2.58;;;1.48;;
18228;SDS011;9239;50.932;3.142;2022-10-16T08:25:04;3.85;;;1.63;;
18228;SDS011;9239;50.932;3.142;2022-10-16T08:27:32;2.55;;;1.27;;
18228;SDS011;9239;50.932;3.142;2022-10-16T08:29:59;4.88;;;1.67;;
18228;SDS011;9239;50.932;3.142;2022-10-16T08:32:27;2.95;;;1.80;;
18228;SDS011;9239;50.932;3.142;2022-10-16T08:34:54;4.13;;;1.63;;
18228;SDS011;9239;50.932;3.142;2022-10-16T08:37:21;2.47;;;1.63;;
18228;SDS011;9239;50.932;3.142;2022-10-16T08:39:48;3.30;;;1.63;;
18228;SDS011;9239;50.932;3.142;2022-10-16T08:42:20;5.43;;;1.52;;
18228;SDS011;9239;50.932;3.142;2022-10-16T08:47:49;4.45;;;1.85;;
18228;SDS011;9239;50.932;3.142;2022-10-16T08:50:27;5.05;;;1.90;;
18228;SDS011;9239;50.932;3.142;2022-10-16T08:52:56;2.90;;;1.40;;
18228;SDS011;9239;50.932;3.142;2022-10-16T08:55:29;3.80;;;1.50;;
18228;SDS011;9239;50.932;3.142;2022-10-16T08:57:59;6.25;;;1.63;;
18228;SDS011;9239;50.932;3.142;2022-10-16T09:00:27;2.80;;;1.63;;
18228;SDS011;9239;50.932;3.142;2022-10-16T09:02:57;3.50;;;1.80;;
18228;SDS011;9239;50.932;3.142;2022-10-16T09:08:19;4.30;;;1.83;;
18228;SDS011;9239;50.932;3.142;2022-10-16T09:10:55;4.82;;;1.60;;
18228;SDS011;9239;50.932;3.142;2022-10-16T09:13:26;4.10;;;1.50;;
18228;SDS011;9239;50.932;3.142;2022-10-16T09:15:57;3.30;;;1.15;;
18228;SDS011;9239;50.932;3.142;2022-10-16T09:18:32;4.60;;;1.50;;
18228;SDS011;9239;50.932;3.142;2022-10-16T09:21:06;6.22;;;1.80;;
18228;SDS011;9239;50.932;3.142;2022-10-16T09:23:37;6.95;;;2.28;;
18228;SDS011;9239;50.932;3.142;2022-10-16T09:26:04;7.97;;;1.70;;
18228;SDS011;9239;50.932;3.142;2022-10-16T09:28:35;4.95;;;1.50;;
18228;SDS011;9239;50.932;3.142;2022-10-16T09:31:03;2.92;;;1.30;;
18228;SDS011;9239;50.932;3.142;2022-10-16T09:33:32;4.45;;;1.70;;
18228;SDS011;9239;50.932;3.142;2022-10-16T09:36:03;4.10;;;1.88;;
18228;SDS011;9239;50.932;3.142;2022-10-16T09:38:32;4.38;;;1.92;;
18228;SDS011;9239;50.932;3.142;2022-10-16T09:41:01;2.88;;;1.55;;
18228;SDS011;9239;50.932;3.142;2022-10-16T09:43:36;4.45;;;1.65;;
18228;SDS011;9239;50.932;3.142;2022-10-16T09:46:07;6.32;;;2.05;;
18228;SDS011;9239;50.932;3.142;2022-10-16T09:48:37;4.32;;;1.67;;
18228;SDS011;9239;50.932;3.142;2022-10-16T09:51:15;6.65;;;2.30;;
18228;SDS011;9239;50.932;3.142;2022-10-16T09:53:45;3.30;;;1.70;;
18228;SDS011;9239;50.932;3.142;2022-10-16T09:56:21;4.90;;;1.88;;
18228;SDS011;9239;50.932;3.142;2022-10-16T09:58:49;5.68;;;2.40;;
18228;SDS011;9239;50.932;3.142;2022-10-16T10:01:17;5.50;;;2.58;;
18228;SDS011;9239;50.932;3.142;2022-10-16T10:03:47;3.33;;;1.77;;
18228;SDS011;9239;50.932;3.142;2022-10-16T10:06:20;5.25;;;1.63;;
18228;SDS011;9239;50.932;3.142;2022-10-16T10:08:56;6.32;;;2.38;;
18228;SDS011;9239;50.932;3.142;2022-10-16T10:11:41;5.25;;;1.50;;
18228;SDS011;9239;50.932;3.142;2022-10-16T10:14:15;6.00;;;1.88;;
18228;SDS011;9239;50.932;3.142;2022-10-16T10:16:51;6.90;;;1.77;;
18228;SDS011;9239;50.932;3.142;2022-10-16T10:19:21;4.45;;;1.63;;
18228;SDS011;9239;50.932;3.142;2022-10-16T10:21:49;5.05;;;1.40;;
18228;SDS011;9239;50.932;3.142;2022-10-16T10:24:18;9.85;;;1.98;;
18228;SDS011;9239;50.932;3.142;2022-10-16T10:26:54;4.88;;;1.63;;
18228;SDS011;9239;50.932;3.142;2022-10-16T10:29:31;4.03;;;2.00;;
18228;SDS011;9239;50.932;3.142;2022-10-16T10:32:15;5.68;;;2.55;;
18228;SDS011;9239;50.932;3.142;2022-10-16T10:34:56;4.97;;;1.75;;
18228;SDS011;9239;50.932;3.142;2022-10-16T10:37:43;5.57;;;1.80;;
18228;SDS011;9239;50.932;3.142;2022-10-16T10:40:22;4.07;;;1.70;;
18228;SDS011;9239;50.932;3.142;2022-10-16T10:42:57;4.50;;;1.98;;
18228;SDS011;9239;50.932;3.142;2022-10-16T10:45:34;5.63;;;1.85;;
18228;SDS011;9239;50.932;3.142;2022-10-16T10:48:13;4.57;;;2.20;;
18228;SDS011;9239;50.932;3.142;2022-10-16T10:50:49;4.60;;;1.85;;
18228;SDS011;9239;50.932;3.142;2022-10-16T10:53:25;6.90;;;2.25;;
18228;SDS011;9239;50.932;3.142;2022-10-16T10:56:04;5.68;;;1.85;;
18228;SDS011;9239;50.932;3.142;2022-10-16T11:01:41;5.85;;;1.50;;
18228;SDS011;9239;50.932;3.142;2022-10-16T11:04:19;5.25;;;2.28;;
18228;SDS011;9239;50.932;3.142;2022-10-16T11:06:57;4.93;;;1.60;;
18228;SDS011;9239;50.932;3.142;2022-10-16T11:09:28;3.65;;;1.73;;
18228;SDS011;9239;50.932;3.142;2022-10-16T11:12:01;7.57;;;3.90;;
18228;SDS011;9239;50.932;3.142;2022-10-16T11:14:34;4.90;;;1.65;;
18228;SDS011;9239;50.932;3.142;2022-10-16T11:17:08;5.30;;;1.60;;
18228;SDS011;9239;50.932;3.142;2022-10-16T11:19:39;7.30;;;2.03;;
18228;SDS011;9239;50.932;3.142;2022-10-16T11:22:15;5.53;;;2.20;;
18228;SDS011;9239;50.932;3.142;2022-10-16T11:24:48;4.43;;;2.00;;
18228;SDS011;9239;50.932;3.142;2022-10-16T11:27:22;3.50;;;1.60;;
18228;SDS011;9239;50.932;3.142;2022-10-16T11:30:02;5.13;;;1.83;;
18228;SDS011;9239;50.932;3.142;2022-10-16T11:32:34;6.40;;;1.52;;
18228;SDS011;9239;50.932;3.142;2022-10-16T11:35:15;7.38;;;1.63;;
18228;SDS011;9239;50.932;3.142;2022-10-16T11:37:49;4.32;;;1.90;;
18228;SDS011;9239;50.932;3.142;2022-10-16T11:40:22;6.68;;;1.73;;
18228;SDS011;9239;50.932;3.142;2022-10-16T11:42:57;4.28;;;1.67;;
18228;SDS011;9239;50.932;3.142;2022-10-16T11:45:32;8.13;;;1.73;;
18228;SDS011;9239;50.932;3.142;2022-10-16T11:48:04;6.35;;;2.00;;
18228;SDS011;9239;50.932;3.142;2022-10-16T11:50:39;4.30;;;2.20;;
18228;SDS011;9239;50.932;3.142;2022-10-16T11:53:13;4.03;;;1.83;;
18228;SDS011;9239;50.932;3.142;2022-10-16T11:55:48;4.45;;;1.90;;
18228;SDS011;9239;50.932;3.142;2022-10-16T11:58:16;5.00;;;2.03;;
18228;SDS011;9239;50.932;3.142;2022-10-16T12:00:54;6.30;;;2.03;;
18228;SDS011;9239;50.932;3.142;2022-10-16T12:03:27;4.18;;;1.73;;
18228;SDS011;9239;50.932;3.142;2022-10-16T12:06:05;5.32;;;1.70;;
18228;SDS011;9239;50.932;3.142;2022-10-16T12:08:41;5.03;;;1.83;;
18228;SDS011;9239;50.932;3.142;2022-10-16T12:11:19;8.00;;;2.13;;
18228;SDS011;9239;50.932;3.142;2022-10-16T12:13:50;6.32;;;1.77;;
18228;SDS011;9239;50.932;3.142;2022-10-16T12:16:21;7.30;;;1.88;;
18228;SDS011;9239;50.932;3.142;2022-10-16T12:18:50;4.93;;;1.98;;
18228;SDS011;9239;50.932;3.142;2022-10-16T12:21:35;4.50;;;1.27;;
18228;SDS011;9239;50.932;3.142;2022-10-16T12:24:05;6.88;;;1.70;;
18228;SDS011;9239;50.932;3.142;2022-10-16T12:26:32;3.80;;;1.42;;
18228;SDS011;9239;50.932;3.142;2022-10-16T12:29:14;3.88;;;1.50;;
18228;SDS011;9239;50.932;3.142;2022-10-16T12:31:49;5.50;;;1.60;;
18228;SDS011;9239;50.932;3.142;2022-10-16T12:34:20;4.38;;;1.75;;
18228;SDS011;9239;50.932;3.142;2022-10-16T12:36:49;3.50;;;1.30;;
18228;SDS011;9239;50.932;3.142;2022-10-16T12:39:21;4.22;;;1.30;;
18228;SDS011;9239;50.932;3.142;2022-10-16T12:42:00;5.38;;;1.60;;
18228;SDS011;9239;50.932;3.142;2022-10-16T12:44:31;5.82;;;1.58;;
18228;SDS011;9239;50.932;3.142;2022-10-16T12:46:59;4.25;;;1.75;;
18228;SDS011;9239;50.932;3.142;2022-10-16T12:49:30;6.53;;;2.10;;
18228;SDS011;9239;50.932;3.142;2022-10-16T12:52:01;5.07;;;1.92;;
18228;SDS011;9239;50.932;3.142;2022-10-16T12:54:31;3.67;;;1.70;;
18228;SDS011;9239;50.932;3.142;2022-10-16T12:57:05;4.00;;;1.70;;
18228;SDS011;9239;50.932;3.142;2022-10-16T12:59:51;2.78;;;1.60;;
18228;SDS011;9239;50.932;3.142;2022-10-16T13:02:35;5.10;;;1.60;;
18228;SDS011;9239;50.932;3.142;2022-10-16T13:05:19;5.57;;;2.00;;
18228;SDS011;9239;50.932;3.142;2022-10-16T13:07:55;3.75;;;1.38;;
18228;SDS011;9239;50.932;3.142;2022-10-16T13:10:35;2.65;;;1.58;;
18228;SDS011;9239;50.932;3.142;2022-10-16T13:13:12;5.05;;;1.50;;
18228;SDS011;9239;50.932;3.142;2022-10-16T13:16:01;1.88;;;1.25;;
18228;SDS011;9239;50.932;3.142;2022-10-16T13:18:39;3.22;;;1.45;;
18228;SDS011;9239;50.932;3.142;2022-10-16T13:21:18;3.28;;;1.67;;
18228;SDS011;9239;50.932;3.142;2022-10-16T13:23:56;4.30;;;1.60;;
18228;SDS011;9239;50.932;3.142;2022-10-16T13:26:34;3.90;;;1.15;;
18228;SDS011;9239;50.932;3.142;2022-10-16T13:29:07;3.65;;;1.60;;
18228;SDS011;9239;50.932;3.142;2022-10-16T13:31:36;3.60;;;1.42;;
18228;SDS011;9239;50.932;3.142;2022-10-16T13:34:05;3.78;;;1.65;;
18228;SDS011;9239;50.932;3.142;2022-10-16T13:36:42;4.93;;;1.38;;
18228;SDS011;9239;50.932;3.142;2022-10-16T13:39:11;3.15;;;1.13;;
18228;SDS011;9239;50.932;3.142;2022-10-16T13:41:41;2.60;;;1.10;;
18228;SDS011;9239;50.932;3.142;2022-10-16T13:44:11;2.38;;;1.10;;
18228;SDS011;9239;50.932;3.142;2022-10-16T13:46:41;3.15;;;1.05;;
18228;SDS011;9239;50.932;3.142;2022-10-16T13:49:12;2.60;;;0.88;;
18228;SDS011;9239;50.932;3.142;2022-10-16T13:51:40;4.03;;;1.10;;
18228;SDS011;9239;50.932;3.142;2022-10-16T13:54:08;3.53;;;0.85;;
18228;SDS011;9239;50.932;3.142;2022-10-16T13:56:38;2.05;;;0.90;;
18228;SDS011;9239;50.932;3.142;2022-10-16T13:59:22;1.27;;;0.70;;
18228;SDS011;9239;50.932;3.142;2022-10-16T14:01:50;1.42;;;0.90;;
18228;SDS011;9239;50.932;3.142;2022-10-16T14:04:20;1.20;;;0.70;;
18228;SDS011;9239;50.932;3.142;2022-10-16T14:06:48;2.28;;;0.90;;
18228;SDS011;9239;50.932;3.142;2022-10-16T14:09:19;1.77;;;0.98;;
18228;SDS011;9239;50.932;3.142;2022-10-16T14:11:49;1.00;;;0.75;;
18228;SDS011;9239;50.932;3.142;2022-10-16T14:14:18;4.70;;;1.13;;
18228;SDS011;9239;50.932;3.142;2022-10-16T14:16:46;2.13;;;1.13;;
18228;SDS011;9239;50.932;3.142;2022-10-16T14:19:15;2.10;;;1.33;;
18228;SDS011;9239;50.932;3.142;2022-10-16T14:21:47;2.05;;;0.70;;
18228;SDS011;9239;50.932;3.142;2022-10-16T14:24:21;3.10;;;1.00;;
18228;SDS011;9239;50.932;3.142;2022-10-16T14:26:52;1.27;;;0.73;;
18228;SDS011;9239;50.932;3.142;2022-10-16T14:29:23;2.10;;;0.70;;
18228;SDS011;9239;50.932;3.142;2022-10-16T14:31:54;2.67;;;1.17;;
18228;SDS011;9239;50.932;3.142;2022-10-16T14:34:23;2.65;;;0.60;;
18228;SDS011;9239;50.932;3.142;2022-10-16T14:36:52;3.03;;;0.98;;
18228;SDS011;9239;50.932;3.142;2022-10-16T14:39:20;3.00;;;1.50;;
18228;SDS011;9239;50.932;3.142;2022-10-16T14:41:49;1.73;;;1.08;;
18228;SDS011;9239;50.932;3.142;2022-10-16T14:44:17;2.17;;;1.00;;
18228;SDS011;9239;50.932;3.142;2022-10-16T14:46:47;2.47;;;0.95;;
18228;SDS011;9239;50.932;3.142;2022-10-16T14:49:15;1.58;;;0.90;;
18228;SDS011;9239;50.932;3.142;2022-10-16T14:51:44;1.73;;;1.20;;
18228;SDS011;9239;50.932;3.142;2022-10-16T14:54:12;3.58;;;1.00;;
18228;SDS011;9239;50.932;3.142;2022-10-16T14:56:44;1.52;;;0.77;;
18228;SDS011;9239;50.932;3.142;2022-10-16T14:59:14;2.30;;;1.23;;
18228;SDS011;9239;50.932;3.142;2022-10-16T15:01:44;1.45;;;0.98;;
18228;SDS011;9239;50.932;3.142;2022-10-16T15:04:12;4.18;;;0.95;;
18228;SDS011;9239;50.932;3.142;2022-10-16T15:06:40;2.47;;;1.30;;
18228;SDS011;9239;50.932;3.142;2022-10-16T15:09:08;2.55;;;1.40;;
18228;SDS011;9239;50.932;3.142;2022-10-16T15:11:35;2.78;;;1.20;;
18228;SDS011;9239;50.932;3.142;2022-10-16T15:14:02;1.92;;;1.10;;
18228;SDS011;9239;50.932;3.142;2022-10-16T15:16:29;3.60;;;1.50;;
18228;SDS011;9239;50.932;3.142;2022-10-16T15:18:57;2.90;;;1.30;;
18228;SDS011;9239;50.932;3.142;2022-10-16T15:21:26;4.13;;;1.40;;
18228;SDS011;9239;50.932;3.142;2022-10-16T15:23:54;1.77;;;1.40;;
18228;SDS011;9239;50.932;3.142;2022-10-16T15:26:22;3.25;;;1.17;;